Mill Gap, Virginia
Current Conditions -  °F | °C
As of 3:15 PM on Sunday 23 Nov 2014 (Local Time) from KHSP Reporting Station
Drizzle Drizzle  
Wind Chill: 35°   Ceiling: 200
Heat Index: 43°   Visibility: 10mi
Dew Point: 43°   Wind: 17mph
Humidity: 99%   Direction: 150°SSE
Pressure: 29.99"   Gusts: 22mph
Location:  38.3937°N, 79.6382°W
Report Text: KHSP 232015Z AUTO 15015G19KT 10SM -DZ BKN002 OVC008 06/06 A2999 RMK AO2 T00620060
Loading
Personal Weather Stations






























Interactive Weather Map New forecast layout! Learn more

10-Day Weather Forecast

Advertisements
Track Severe Weather on mobile